Time;durP1;ratioP1;P1;durP2;ratioP2;P2;SDS_P1;SDS_P2;PMS_P1;PMS_P2;Temp;Humidity;BMP_temperature;BMP_pressure;BME280_temperature;BME280_humidity;BME280_pressure;Samples;Min_cycle;Max_cycle;Signal;HPM_P1;HPM_P2
2022/02/08 00:02:14;;;;;;;4.28;2.40;;;;;;;;;;6258326;28;20046;-64
2022/02/08 00:05:18;;;;;;;9.48;1.95;;;;;;;;;;6253956;28;20045;-64
2022/02/08 00:08:19;;;;;;;4.27;1.87;;;;;;;;;;6261392;28;20072;-65
2022/02/08 00:11:21;;;;;;;5.18;2.33;;;;;;;;;;6254028;28;20106;-64
2022/02/08 00:14:22;;;;;;;13.48;3.28;;;;;;;;;;6253885;28;20108;-67
2022/02/08 00:17:25;;;;;;;8.95;3.08;;;;;;;;;;6257630;28;20045;-65
2022/02/08 00:20:27;;;;;;;8.88;2.45;;;;;;;;;;6251386;28;20520;-65
2022/02/08 00:23:28;;;;;;;7.28;2.63;;;;;;;;;;6253868;28;20071;-64
2022/02/08 00:26:30;;;;;;;4.25;2.17;;;;;;;;;;6256931;28;20144;-65
2022/02/08 00:29:32;;;;;;;7.25;2.53;;;;;;;;;;6256297;28;20053;-65
2022/02/08 00:32:35;;;;;;;4.50;1.70;;;;;;;;;;6256939;28;20077;-66
2022/02/08 00:35:37;;;;;;;94.78;39.97;;;;;;;;;;6256490;28;20045;-67
2022/02/08 00:38:39;;;;;;;115.38;59.45;;;;;;;;;;6254929;28;20052;-67
2022/02/08 00:41:40;;;;;;;43.78;18.83;;;;;;;;;;6258014;28;20371;-67
2022/02/08 00:44:46;;;;;;;19.15;8.43;;;;;;;;;;6249134;28;20567;-67
2022/02/08 00:47:54;;;;;;;12.95;6.15;;;;;;;;;;6255310;28;20050;-66
2022/02/08 00:50:56;;;;;;;122.55;49.15;;;;;;;;;;6247009;28;20093;-64
2022/02/08 00:53:58;;;;;;;8.85;4.63;;;;;;;;;;6250532;28;20060;-64
2022/02/08 00:56:59;;;;;;;8.73;2.00;;;;;;;;;;6252887;28;20072;-64
2022/02/08 01:00:01;;;;;;;5.72;2.20;;;;;;;;;;6249982;28;20613;-64
2022/02/08 01:03:05;;;;;;;8.38;1.77;;;;;;;;;;6250142;28;20390;-64
2022/02/08 01:06:08;;;;;;;;;;;;;;;;;;6257630;28;20049;-63
2022/02/08 01:09:14;;;;;;;5.97;1.55;;;;;;;;;;6253543;28;19925;-64
2022/02/08 01:12:16;;;;;;;3.15;1.33;;;;;;;;;;6251731;28;20218;-64
2022/02/08 01:15:18;;;;;;;3.58;1.80;;;;;;;;;;6254344;28;20068;-64
2022/02/08 01:18:21;;;;;;;3.53;1.65;;;;;;;;;;6252299;28;20497;-64
2022/02/08 01:21:23;;;;;;;3.95;2.10;;;;;;;;;;6255138;28;20048;-64
2022/02/08 01:24:25;;;;;;;5.70;2.67;;;;;;;;;;6252976;28;20050;-64
2022/02/08 01:27:30;;;;;;;5.22;2.33;;;;;;;;;;6247957;28;20102;-64
2022/02/08 01:30:44;;;;;;;5.28;2.38;;;;;;;;;;6252627;28;20189;-64
2022/02/08 01:37:20;;;;;;;5.38;2.45;;;;;;;;;;6257942;28;20057;-64
2022/02/08 01:40:29;;;;;;;4.82;2.47;;;;;;;;;;6250946;28;20067;-64
2022/02/08 01:44:05;;;;;;;4.95;2.30;;;;;;;;;;6254957;28;20069;-64
2022/02/08 01:47:07;;;;;;;3.45;1.90;;;;;;;;;;6253733;28;20046;-64
2022/02/08 01:50:12;;;;;;;3.78;1.80;;;;;;;;;;6251609;28;20044;-64
2022/02/08 01:53:13;;;;;;;3.92;2.00;;;;;;;;;;6246905;28;20049;-64
2022/02/08 01:56:15;;;;;;;6.90;2.00;;;;;;;;;;6251964;28;20052;-64
2022/02/08 01:59:17;;;;;;;6.40;2.28;;;;;;;;;;6251870;28;20045;-64
2022/02/08 02:02:18;;;;;;;3.50;1.88;;;;;;;;;;6250004;28;20120;-64
2022/02/08 02:05:22;;;;;;;4.35;2.15;;;;;;;;;;6254245;28;20053;-64
2022/02/08 02:08:23;;;;;;;5.80;2.33;;;;;;;;;;6256866;28;20524;-64
2022/02/08 02:11:25;;;;;;;5.35;2.63;;;;;;;;;;6255602;28;20128;-64
2022/02/08 02:14:26;;;;;;;5.25;2.50;;;;;;;;;;6256676;28;20183;-65
2022/02/08 02:17:28;;;;;;;3.40;2.20;;;;;;;;;;6256017;28;20065;-64
2022/02/08 02:20:33;;;;;;;5.85;1.95;;;;;;;;;;6256155;28;20156;-64
2022/02/08 02:23:34;;;;;;;2.88;1.88;;;;;;;;;;6259899;28;20187;-64
2022/02/08 02:26:37;;;;;;;3.15;2.08;;;;;;;;;;6261949;28;20049;-64
2022/02/08 02:29:39;;;;;;;3.97;2.10;;;;;;;;;;6259480;28;20072;-64
2022/02/08 02:32:41;;;;;;;4.55;2.10;;;;;;;;;;6261911;28;20136;-63
2022/02/08 02:35:43;;;;;;;4.68;1.83;;;;;;;;;;6264455;28;20050;-64
2022/02/08 02:38:45;;;;;;;3.47;1.77;;;;;;;;;;6256790;28;20093;-64
2022/02/08 02:41:48;;;;;;;4.90;2.15;;;;;;;;;;6253699;28;20079;-64
2022/02/08 02:44:49;;;;;;;3.42;1.80;;;;;;;;;;6258183;28;20135;-64
2022/02/08 02:47:53;;;;;;;4.95;2.60;;;;;;;;;;6263469;28;20111;-64
2022/02/08 02:50:55;;;;;;;4.00;2.03;;;;;;;;;;6256227;28;20065;-64
2022/02/08 02:53:57;;;;;;;4.70;1.83;;;;;;;;;;6264592;28;20049;-63
2022/02/08 02:57:01;;;;;;;5.93;2.53;;;;;;;;;;6260211;28;20049;-63
2022/02/08 03:00:08;;;;;;;3.67;1.95;;;;;;;;;;6255291;28;20405;-64
2022/02/08 03:03:23;;;;;;;3.90;1.92;;;;;;;;;;6256223;28;20497;-64
2022/02/08 03:19:42;;;;;;;4.07;2.10;;;;;;;;;;6256650;28;20084;-64
2022/02/08 03:22:44;;;;;;;7.45;2.47;;;;;;;;;;6252415;28;20061;-63
2022/02/08 03:25:45;;;;;;;4.07;2.28;;;;;;;;;;6258443;28;20095;-64
2022/02/08 03:28:48;;;;;;;5.18;2.45;;;;;;;;;;6261740;28;20049;-64
2022/02/08 03:31:50;;;;;;;5.78;2.75;;;;;;;;;;6257331;28;20152;-64
2022/02/08 03:34:51;;;;;;;4.68;2.78;;;;;;;;;;6257827;28;20123;-64
2022/02/08 03:37:58;;;;;;;3.95;2.13;;;;;;;;;;6258216;28;20131;-63
2022/02/08 03:41:01;;;;;;;4.43;2.65;;;;;;;;;;6259431;28;20053;-64
2022/02/08 03:44:13;;;;;;;5.40;2.43;;;;;;;;;;6259628;28;20460;-64
2022/02/08 03:47:17;;;;;;;5.90;2.38;;;;;;;;;;6254753;28;20064;-65
2022/02/08 03:50:18;;;;;;;7.07;3.30;;;;;;;;;;6255661;28;20060;-64
2022/02/08 03:53:20;;;;;;;6.13;2.67;;;;;;;;;;6255226;28;20152;-64
2022/02/08 03:56:23;;;;;;;6.35;2.72;;;;;;;;;;6254973;28;20131;-64
2022/02/08 03:59:26;;;;;;;5.63;2.95;;;;;;;;;;6254618;28;20525;-65
2022/02/08 04:02:39;;;;;;;5.55;2.53;;;;;;;;;;6256287;28;20129;-65
2022/02/08 04:05:44;;;;;;;5.55;2.50;;;;;;;;;;6258097;28;20067;-63
2022/02/08 04:08:46;;;;;;;6.57;2.97;;;;;;;;;;6257207;28;20049;-64
2022/02/08 04:11:56;;;;;;;11.38;4.20;;;;;;;;;;6255498;28;20057;-65
2022/02/08 04:15:15;;;;;;;4.68;2.88;;;;;;;;;;6257428;28;20512;-65
2022/02/08 04:18:42;;;;;;;11.02;3.28;;;;;;;;;;6255315;28;20053;-64
2022/02/08 04:32:14;;;;;;;5.97;3.50;;;;;;;;;;6264822;28;20057;-65
2022/02/08 04:35:39;;;;;;;6.57;3.30;;;;;;;;;;6260012;28;20128;-64
2022/02/08 04:38:50;;;;;;;;;;;;;;;;;;6258846;28;20045;-63
2022/02/08 04:42:01;;;;;;;6.30;2.90;;;;;;;;;;6253743;28;20377;-64
2022/02/08 04:45:12;;;;;;;4.80;3.03;;;;;;;;;;6262262;28;20041;-63
2022/02/08 04:48:26;;;;;;;6.43;3.30;;;;;;;;;;6261371;28;20045;-64
2022/02/08 04:51:33;;;;;;;5.47;2.90;;;;;;;;;;6257032;28;20179;-64
2022/02/08 04:54:43;;;;;;;5.53;2.90;;;;;;;;;;6256736;28;20057;-63
2022/02/08 04:57:50;;;;;;;5.40;3.33;;;;;;;;;;6260158;28;20512;-64
2022/02/08 05:01:04;;;;;;;6.78;3.22;;;;;;;;;;6257681;28;20401;-66
2022/02/08 05:37:40;;;;;;;9.35;3.78;;;;;;;;;;6229774;28;20037;-63
2022/02/08 05:41:37;;;;;;;7.68;3.85;;;;;;;;;;6258409;28;20115;-64
2022/02/08 05:44:37;;;;;;;6.72;3.58;;;;;;;;;;6260107;28;20046;-65
2022/02/08 05:47:42;;;;;;;9.70;5.57;;;;;;;;;;6259859;28;20523;-64
2022/02/08 05:50:56;;;;;;;5.50;3.95;;;;;;;;;;6258184;28;20568;-63
2022/02/08 05:53:58;;;;;;;6.15;3.78;;;;;;;;;;6262789;28;20053;-63
2022/02/08 05:57:00;;;;;;;12.30;4.78;;;;;;;;;;6264811;28;20381;-64
2022/02/08 06:00:02;;;;;;;9.95;4.15;;;;;;;;;;6257272;28;20457;-64
2022/02/08 06:03:06;;;;;;;9.05;4.70;;;;;;;;;;6261978;28;20095;-63
2022/02/08 06:06:07;;;;;;;12.32;4.68;;;;;;;;;;6259284;28;20072;-65
2022/02/08 06:09:11;;;;;;;7.32;3.85;;;;;;;;;;6261954;28;20124;-64
2022/02/08 06:12:12;;;;;;;7.57;4.20;;;;;;;;;;6260099;28;20159;-63
2022/02/08 06:15:16;;;;;;;15.20;5.03;;;;;;;;;;6263735;28;20456;-64
2022/02/08 06:18:18;;;;;;;9.75;4.00;;;;;;;;;;6254792;28;20049;-64
2022/02/08 06:21:19;;;;;;;10.20;4.22;;;;;;;;;;6255965;28;20490;-64
2022/02/08 06:24:22;;;;;;;15.23;4.43;;;;;;;;;;6255142;28;20172;-65
2022/02/08 06:27:29;;;;;;;8.35;4.45;;;;;;;;;;6256863;28;20539;-64
2022/02/08 06:30:30;;;;;;;13.90;4.75;;;;;;;;;;6259734;28;20060;-64
2022/02/08 06:33:32;;;;;;;13.88;4.53;;;;;;;;;;6259420;28;20489;-64
2022/02/08 06:36:34;;;;;;;12.00;4.30;;;;;;;;;;6255535;28;20084;-64
2022/02/08 06:39:37;;;;;;;12.02;4.45;;;;;;;;;;6259759;28;20064;-64
2022/02/08 06:42:41;;;;;;;14.20;6.07;;;;;;;;;;6256400;28;20060;-65
2022/02/08 06:45:42;;;;;;;9.53;4.63;;;;;;;;;;6261665;28;20049;-64
2022/02/08 06:48:44;;;;;;;10.35;4.60;;;;;;;;;;6254115;28;20057;-65
2022/02/08 06:51:45;;;;;;;10.75;4.72;;;;;;;;;;6259275;28;20124;-65
2022/02/08 06:54:49;;;;;;;10.70;4.45;;;;;;;;;;6256827;28;20067;-63
2022/02/08 06:57:52;;;;;;;8.63;4.93;;;;;;;;;;6261492;28;20053;-64
2022/02/08 07:00:59;;;;;;;10.50;4.47;;;;;;;;;;6255032;28;20198;-63
2022/02/08 07:04:03;;;;;;;10.98;4.55;;;;;;;;;;6255501;28;20053;-64
2022/02/08 07:07:04;;;;;;;12.18;4.22;;;;;;;;;;6258734;28;20161;-64
2022/02/08 07:10:08;;;;;;;9.77;4.40;;;;;;;;;;6254831;28;20516;-64
2022/02/08 07:13:10;;;;;;;7.93;3.90;;;;;;;;;;6252828;28;20048;-64
2022/02/08 07:16:12;;;;;;;13.10;4.95;;;;;;;;;;6256351;28;20477;-64
2022/02/08 07:19:13;;;;;;;8.57;4.05;;;;;;;;;;6253994;28;20122;-65
2022/02/08 07:22:15;;;;;;;7.88;3.60;;;;;;;;;;6254193;28;20095;-64
2022/02/08 07:25:18;;;;;;;7.15;3.80;;;;;;;;;;6254417;28;20045;-64
2022/02/08 07:28:19;;;;;;;7.25;3.58;;;;;;;;;;6256669;28;20512;-64
2022/02/08 07:31:23;;;;;;;8.68;3.38;;;;;;;;;;6256036;28;20053;-65
2022/02/08 07:34:30;;;;;;;8.55;3.90;;;;;;;;;;6254753;28;20053;-65
2022/02/08 07:37:45;;;;;;;9.02;3.97;;;;;;;;;;6259109;28;20401;-64
2022/02/08 07:44:08;;;;;;;8.82;3.60;;;;;;;;;;6261019;28;20042;-65
2022/02/08 07:47:10;;;;;;;5.63;3.65;;;;;;;;;;6261346;28;20176;-65
2022/02/08 07:50:12;;;;;;;7.95;4.07;;;;;;;;;;6260572;28;20492;-62
2022/02/08 07:53:15;;;;;;;8.32;4.20;;;;;;;;;;6256922;28;20045;-62
2022/02/08 07:56:18;;;;;;;11.20;3.97;;;;;;;;;;6254311;28;20045;-65
2022/02/08 07:59:19;;;;;;;9.55;4.18;;;;;;;;;;6256271;28;20052;-62
2022/02/08 08:02:21;;;;;;;9.93;4.30;;;;;;;;;;6262518;28;20064;-62
2022/02/08 08:05:22;;;;;;;8.45;3.80;;;;;;;;;;6256746;28;20486;-63
2022/02/08 08:08:24;;;;;;;8.75;4.85;;;;;;;;;;6260161;28;20041;-63
2022/02/08 08:11:35;;;;;;;9.43;4.72;;;;;;;;;;6256693;28;20057;-63
2022/02/08 08:14:36;;;;;;;9.52;4.57;;;;;;;;;;6257740;28;20099;-63
2022/02/08 08:17:54;;;;;;;14.00;5.38;;;;;;;;;;6257546;28;20136;-62
2022/02/08 08:20:55;;;;;;;8.73;4.57;;;;;;;;;;6255861;28;20049;-65
2022/02/08 08:23:57;;;;;;;8.63;4.35;;;;;;;;;;6254750;28;20176;-65
2022/02/08 08:27:01;;;;;;;11.45;4.85;;;;;;;;;;6253945;28;20094;-65
2022/02/08 08:30:02;;;;;;;10.85;4.65;;;;;;;;;;6256226;28;20052;-65
2022/02/08 08:33:04;;;;;;;12.35;4.72;;;;;;;;;;6260726;28;20049;-65
2022/02/08 08:36:06;;;;;;;10.77;4.95;;;;;;;;;;6260944;28;20413;-67
2022/02/08 08:39:09;;;;;;;11.07;4.43;;;;;;;;;;6253726;28;20041;-65
2022/02/08 08:42:25;;;;;;;9.18;4.57;;;;;;;;;;6258403;28;20046;-65
2022/02/08 08:49:06;;;;;;;8.35;4.63;;;;;;;;;;6258912;28;20081;-65
2022/02/08 08:52:08;;;;;;;8.75;4.43;;;;;;;;;;6261786;28;20076;-65
2022/02/08 08:55:10;;;;;;;10.82;4.78;;;;;;;;;;6256220;28;20045;-65
2022/02/08 08:58:13;;;;;;;12.23;4.30;;;;;;;;;;6257732;28;20045;-67
2022/02/08 09:01:15;;;;;;;9.60;4.28;;;;;;;;;;6253589;28;20454;-65
2022/02/08 09:04:18;;;;;;;7.35;4.10;;;;;;;;;;6252827;28;20057;-63
2022/02/08 09:07:20;;;;;;;10.30;4.43;;;;;;;;;;6254102;28;20056;-66
2022/02/08 09:10:26;;;;;;;10.82;4.13;;;;;;;;;;6254956;28;20049;-63
2022/02/08 09:13:35;;;;;;;9.30;4.45;;;;;;;;;;6256285;28;20128;-65
2022/02/08 09:16:42;;;;;;;9.65;4.03;;;;;;;;;;6260317;28;20405;-65
2022/02/08 09:20:05;;;;;;;10.52;4.70;;;;;;;;;;6256880;28;20042;-66
2022/02/08 09:29:47;;;;;;;13.35;4.38;;;;;;;;;;6239141;28;20049;-66
2022/02/08 09:32:52;;;;;;;9.20;3.95;;;;;;;;;;6249468;28;20071;-66
2022/02/08 09:35:54;;;;;;;7.80;4.20;;;;;;;;;;6258355;28;20516;-66
2022/02/08 09:38:56;;;;;;;12.35;4.53;;;;;;;;;;6252765;28;20434;-66
2022/02/08 09:41:58;;;;;;;9.48;4.40;;;;;;;;;;6260337;28;20049;-66
2022/02/08 09:45:01;;;;;;;8.10;4.10;;;;;;;;;;6254912;28;20139;-66
2022/02/08 09:48:09;;;;;;;8.57;4.05;;;;;;;;;;6255994;28;20077;-66
2022/02/08 09:51:12;;;;;;;7.30;4.18;;;;;;;;;;6251004;28;20049;-66
2022/02/08 09:54:14;;;;;;;7.38;3.80;;;;;;;;;;6255132;28;20045;-66
2022/02/08 09:57:16;;;;;;;5.97;4.20;;;;;;;;;;6251980;28;20251;-67
2022/02/08 10:00:20;;;;;;;8.98;4.00;;;;;;;;;;6257185;28;20049;-67
2022/02/08 10:03:22;;;;;;;5.68;3.92;;;;;;;;;;6252236;28;20053;-66
2022/02/08 10:06:24;;;;;;;5.63;4.03;;;;;;;;;;6261776;28;20073;-67
2022/02/08 10:09:31;;;;;;;6.10;4.00;;;;;;;;;;6250885;28;20046;-66
2022/02/08 10:12:58;;;;;;;9.90;4.93;;;;;;;;;;6253308;28;20059;-67
2022/02/08 10:22:43;;;;;;;8.50;4.78;;;;;;;;;;6249508;28;20049;-66
2022/02/08 10:25:49;;;;;;;8.10;4.78;;;;;;;;;;6254233;28;20158;-66
2022/02/08 10:28:57;;;;;;;11.82;5.18;;;;;;;;;;6259395;28;20048;-67
2022/02/08 10:32:07;;;;;;;11.73;5.22;;;;;;;;;;6261498;28;20058;-66
2022/02/08 10:38:38;;;;;;;11.02;6.43;;;;;;;;;;6259753;28;20049;-67
2022/02/08 10:41:39;;;;;;;11.82;6.30;;;;;;;;;;6261820;28;20046;-67
2022/02/08 10:44:41;;;;;;;11.05;6.32;;;;;;;;;;6258207;28;20191;-67
2022/02/08 10:47:45;;;;;;;10.95;5.63;;;;;;;;;;6260526;28;20113;-66
2022/02/08 10:50:52;;;;;;;10.50;6.18;;;;;;;;;;6253414;28;20076;-68
2022/02/08 10:53:59;;;;;;;10.85;6.15;;;;;;;;;;6264916;28;20053;-66
2022/02/08 10:57:06;;;;;;;10.32;6.00;;;;;;;;;;6255378;28;20094;-66
2022/02/08 11:00:08;;;;;;;14.88;6.47;;;;;;;;;;6259488;28;20057;-67
2022/02/08 11:03:16;;;;;;;10.80;5.93;;;;;;;;;;6256609;28;20072;-66
2022/02/08 11:06:24;;;;;;;7.43;5.40;;;;;;;;;;6264102;28;20060;-67
2022/02/08 11:09:38;;;;;;;10.82;5.82;;;;;;;;;;6255125;28;20052;-66
2022/02/08 11:12:48;;;;;;;7.35;5.80;;;;;;;;;;6264309;28;20354;-67
2022/02/08 11:15:58;;;;;;;7.82;5.95;;;;;;;;;;6256134;28;20477;-67
2022/02/08 11:19:22;;;;;;;10.00;5.82;;;;;;;;;;6252929;28;20536;-68
2022/02/08 11:22:33;;;;;;;;;;;;;;;;;;6254461;28;20041;-66
2022/02/08 11:25:40;;;;;;;9.48;5.20;;;;;;;;;;6255404;28;19925;-66
2022/02/08 11:28:46;;;;;;;14.98;5.82;;;;;;;;;;6255911;28;20059;-66
2022/02/08 11:32:00;;;;;;;8.82;5.50;;;;;;;;;;6258222;28;20103;-66
2022/02/08 11:39:17;;;;;;;12.50;6.50;;;;;;;;;;6256507;28;20499;-66
2022/02/08 11:46:02;;;;;;;9.40;5.55;;;;;;;;;;6208355;28;20124;-66
2022/02/08 11:52:48;;;;;;;9.35;6.00;;;;;;;;;;6256949;28;20049;-66
2022/02/08 11:56:19;;;;;;;11.90;6.07;;;;;;;;;;6258762;28;20413;-68
2022/02/08 11:59:29;;;;;;;9.57;6.47;;;;;;;;;;6251539;28;20056;-66
2022/02/08 12:06:08;;;;;;;14.10;6.90;;;;;;;;;;6253860;28;20041;-66
2022/02/08 12:09:21;;;;;;;13.20;6.88;;;;;;;;;;6254537;28;20055;-66
2022/02/08 12:12:59;;;;;;;10.05;6.65;;;;;;;;;;6257515;28;20059;-67
2022/02/08 12:33:10;;;;;;;7.75;6.07;;;;;;;;;;6256307;28;20061;-69
2022/02/08 12:36:31;;;;;;;6.45;4.80;;;;;;;;;;6260103;28;20396;-66
2022/02/08 12:53:35;;;;;;;26.80;16.80;;;;;;;;;;6254989;28;20045;-67
2022/02/08 12:56:43;;;;;;;25.38;15.50;;;;;;;;;;6254478;28;20053;-65
2022/02/08 13:00:13;;;;;;;10.15;6.32;;;;;;;;;;6255364;28;20051;-67
2022/02/08 13:03:28;;;;;;;20.02;14.60;;;;;;;;;;6257951;28;20049;-66
2022/02/08 13:20:21;;;;;;;9.40;5.80;;;;;;;;;;6252909;28;20077;-65
2022/02/08 14:07:01;;;;;;;6.70;5.10;;;;;;;;;;6265006;28;20389;-64
2022/02/08 14:10:18;;;;;;;7.93;5.28;;;;;;;;;;6269507;28;20048;-65
2022/02/08 14:13:40;;;;;;;8.45;5.03;;;;;;;;;;6264946;28;20401;-66
2022/02/08 14:17:13;;;;;;;10.40;5.40;;;;;;;;;;6255824;28;20432;-65
2022/02/08 14:23:56;;;;;;;7.80;5.20;;;;;;;;;;6250200;28;20049;-64
2022/02/08 14:30:24;;;;;;;10.43;4.82;;;;;;;;;;6261818;28;20068;-65
2022/02/08 14:33:48;;;;;;;7.72;5.28;;;;;;;;;;6259263;28;20053;-64
2022/02/08 14:37:02;;;;;;;;;;;;;;;;;;6259913;28;20053;-66
2022/02/08 15:07:18;;;;;;;9.70;6.25;;;;;;;;;;6258627;28;20053;-66
2022/02/08 15:10:24;;;;;;;8.48;4.82;;;;;;;;;;6257896;28;20413;-67
2022/02/08 15:13:27;;;;;;;8.48;4.60;;;;;;;;;;6252369;28;20182;-67
2022/02/08 15:16:30;;;;;;;6.20;4.50;;;;;;;;;;6259890;28;20053;-66
2022/02/08 15:19:33;;;;;;;8.23;4.63;;;;;;;;;;6257019;28;20048;-66
2022/02/08 15:22:34;;;;;;;21.02;15.45;;;;;;;;;;6251078;28;20064;-67
2022/02/08 15:25:36;;;;;;;38.22;25.38;;;;;;;;;;6256964;28;20118;-65
2022/02/08 15:28:40;;;;;;;17.98;5.30;;;;;;;;;;6252702;28;20520;-65
2022/02/08 15:31:41;;;;;;;9.80;4.50;;;;;;;;;;6259651;28;20055;-68
2022/02/08 15:34:43;;;;;;;12.93;4.55;;;;;;;;;;6255721;28;20095;-66
2022/02/08 15:37:45;;;;;;;11.60;4.90;;;;;;;;;;6257002;28;20046;-68
2022/02/08 15:40:47;;;;;;;10.98;5.07;;;;;;;;;;6252379;28;20055;-66
2022/02/08 15:43:51;;;;;;;20.95;5.20;;;;;;;;;;6261047;28;20057;-65
2022/02/08 15:46:53;;;;;;;12.75;4.97;;;;;;;;;;6257562;28;20049;-68
2022/02/08 15:49:59;;;;;;;10.55;4.90;;;;;;;;;;6258306;28;20045;-68
2022/02/08 15:53:11;;;;;;;16.92;4.78;;;;;;;;;;6253118;28;20056;-65
2022/02/08 16:06:53;;;;;;;11.02;5.13;;;;;;;;;;6253799;28;20045;-68
2022/02/08 16:09:58;;;;;;;18.70;5.57;;;;;;;;;;6253418;28;20049;-67
2022/02/08 16:13:19;;;;;;;9.48;4.80;;;;;;;;;;6260022;28;20520;-67
2022/02/08 16:16:45;;;;;;;9.15;5.15;;;;;;;;;;6259773;28;20056;-67
2022/02/08 16:19:58;;;;;;;13.50;5.80;;;;;;;;;;6260487;28;20052;-67
2022/02/08 16:26:30;;;;;;;25.92;6.22;;;;;;;;;;6232977;28;20037;-67
2022/02/08 16:30:04;;;;;;;12.00;5.15;;;;;;;;;;6255405;28;20054;-67
2022/02/08 16:46:51;;;;;;;15.73;6.28;;;;;;;;;;6262256;28;20055;-66
2022/02/08 16:53:26;;;;;;;10.07;5.07;;;;;;;;;;6198772;28;20065;-67
2022/02/08 16:56:40;;;;;;;10.93;5.25;;;;;;;;;;6255819;28;20045;-66
2022/02/08 16:59:44;;;;;;;8.38;5.70;;;;;;;;;;6255994;28;20137;-67
2022/02/08 17:02:50;;;;;;;14.27;6.00;;;;;;;;;;6252544;28;20049;-67
2022/02/08 17:05:53;;;;;;;9.75;5.90;;;;;;;;;;6252952;28;20045;-66
2022/02/08 17:09:02;;;;;;;9.00;5.80;;;;;;;;;;6258967;28;20114;-66
2022/02/08 17:12:11;;;;;;;13.20;6.82;;;;;;;;;;6257875;28;20464;-66
2022/02/08 17:15:39;;;;;;;20.10;7.00;;;;;;;;;;6256903;28;20136;-67
2022/02/08 17:19:03;;;;;;;17.17;7.20;;;;;;;;;;6256168;28;20403;-67
2022/02/08 17:36:22;;;;;;;11.75;7.00;;;;;;;;;;6254738;28;20123;-68
2022/02/08 17:45:52;;;;;;;19.75;8.27;;;;;;;;;;6235463;28;20402;-69
2022/02/08 17:48:53;;;;;;;12.73;7.55;;;;;;;;;;6264051;28;20053;-68
2022/02/08 17:51:55;;;;;;;18.15;7.25;;;;;;;;;;6263150;28;20136;-69
2022/02/08 17:54:58;;;;;;;12.52;7.38;;;;;;;;;;6257328;28;20065;-68
2022/02/08 17:58:00;;;;;;;21.17;8.65;;;;;;;;;;6259602;28;20202;-68
2022/02/08 18:01:02;;;;;;;14.65;6.75;;;;;;;;;;6257923;28;20511;-68
2022/02/08 18:04:04;;;;;;;16.70;7.68;;;;;;;;;;6260707;28;20521;-70
2022/02/08 18:07:05;;;;;;;17.05;8.07;;;;;;;;;;6252340;28;20098;-69
2022/02/08 18:10:10;;;;;;;14.25;6.82;;;;;;;;;;6260454;28;20492;-69
2022/02/08 18:13:15;;;;;;;14.25;7.78;;;;;;;;;;6256160;28;20056;-68
2022/02/08 18:16:21;;;;;;;17.63;8.30;;;;;;;;;;6264002;28;20046;-68
2022/02/08 18:19:30;;;;;;;16.67;7.65;;;;;;;;;;6256939;28;20041;-71
2022/02/08 18:22:47;;;;;;;16.17;8.10;;;;;;;;;;6260214;28;20052;-67
2022/02/08 18:56:28;;;;;;;14.02;8.13;;;;;;;;;;6255377;28;20061;-67
2022/02/08 19:10:05;;;;;;;18.83;8.75;;;;;;;;;;6200074;28;20590;-67
2022/02/08 19:16:41;;;;;;;23.38;10.15;;;;;;;;;;6254138;28;20392;-67
2022/02/08 19:19:48;;;;;;;23.58;8.35;;;;;;;;;;6252301;28;20050;-67
2022/02/08 19:22:50;;;;;;;13.05;8.70;;;;;;;;;;6252812;28;20054;-65
2022/02/08 19:25:51;;;;;;;15.93;8.85;;;;;;;;;;6254313;28;20410;-66
2022/02/08 19:28:54;;;;;;;11.90;7.75;;;;;;;;;;6253290;28;21700;-66
2022/02/08 19:31:57;;;;;;;14.95;7.45;;;;;;;;;;6257293;28;20501;-66
2022/02/08 19:34:58;;;;;;;17.97;8.13;;;;;;;;;;6257707;28;20486;-67
2022/02/08 19:38:01;;;;;;;14.32;7.32;;;;;;;;;;6257706;28;20140;-67
2022/02/08 19:41:03;;;;;;;19.08;7.72;;;;;;;;;;6257020;28;20402;-67
2022/02/08 19:44:07;;;;;;;18.73;8.70;;;;;;;;;;6258764;28;20211;-66
2022/02/08 19:47:11;;;;;;;16.23;8.02;;;;;;;;;;6254324;28;20179;-65
2022/02/08 19:50:13;;;;;;;15.57;8.70;;;;;;;;;;6258518;28;20041;-65
2022/02/08 19:53:15;;;;;;;12.50;8.68;;;;;;;;;;6263418;28;20171;-67
2022/02/08 19:56:29;;;;;;;17.05;9.00;;;;;;;;;;6262516;28;20053;-66
2022/02/08 19:59:35;;;;;;;31.02;9.77;;;;;;;;;;6258014;28;20099;-66
2022/02/08 20:02:44;;;;;;;16.63;8.60;;;;;;;;;;6257330;28;20073;-66
2022/02/08 20:05:47;;;;;;;21.73;8.98;;;;;;;;;;6262315;28;20133;-65
2022/02/08 20:08:48;;;;;;;20.05;9.57;;;;;;;;;;6259256;28;20053;-66
2022/02/08 20:11:50;;;;;;;21.10;10.75;;;;;;;;;;6256410;28;20529;-66
2022/02/08 20:14:53;;;;;;;21.42;9.95;;;;;;;;;;6258411;28;20129;-66
2022/02/08 20:17:56;;;;;;;23.80;10.50;;;;;;;;;;6252679;28;20405;-66
2022/02/08 20:20:58;;;;;;;15.77;9.45;;;;;;;;;;6248280;28;20119;-66
2022/02/08 20:24:03;;;;;;;19.35;10.35;;;;;;;;;;6253347;28;20041;-66
2022/02/08 20:30:26;;;;;;;17.83;9.57;;;;;;;;;;6242637;28;20042;-66
2022/02/08 20:33:29;;;;;;;18.95;9.82;;;;;;;;;;6254574;28;20055;-67
2022/02/08 20:36:31;;;;;;;25.20;10.90;;;;;;;;;;6258979;28;20081;-66
2022/02/08 20:39:32;;;;;;;20.65;10.73;;;;;;;;;;6255644;28;20054;-66
2022/02/08 20:42:34;;;;;;;23.38;10.77;;;;;;;;;;6253571;28;20057;-66
2022/02/08 20:45:37;;;;;;;26.73;11.73;;;;;;;;;;6255110;28;20115;-66
2022/02/08 20:48:41;;;;;;;30.58;14.20;;;;;;;;;;6261509;28;20127;-66
2022/02/08 20:51:44;;;;;;;19.08;11.15;;;;;;;;;;6255692;28;20119;-65
2022/02/08 20:54:50;;;;;;;22.80;12.07;;;;;;;;;;6257794;28;20143;-65
2022/02/08 20:58:01;;;;;;;20.52;11.50;;;;;;;;;;6260927;28;20459;-66
2022/02/08 21:01:03;;;;;;;22.80;11.55;;;;;;;;;;6254712;28;20121;-66
2022/02/08 21:04:13;;;;;;;20.58;11.07;;;;;;;;;;6255276;28;20179;-66
2022/02/08 21:07:14;;;;;;;17.50;10.90;;;;;;;;;;6259274;28;20045;-66
2022/02/08 21:10:16;;;;;;;20.98;10.63;;;;;;;;;;6254786;28;20366;-66
2022/02/08 21:13:28;;;;;;;24.08;11.25;;;;;;;;;;6257168;28;20124;-66
2022/02/08 21:16:31;;;;;;;18.65;11.57;;;;;;;;;;6256909;28;20501;-65
2022/02/08 21:19:33;;;;;;;26.23;11.15;;;;;;;;;;6253877;28;20056;-65
2022/02/08 21:22:35;;;;;;;18.02;11.13;;;;;;;;;;6257317;28;20105;-65
2022/02/08 21:25:38;;;;;;;21.00;11.23;;;;;;;;;;6251847;28;20049;-65
2022/02/08 21:28:54;;;;;;;19.20;10.65;;;;;;;;;;6255927;28;20091;-65
2022/02/08 21:48:52;;;;;;;24.65;11.40;;;;;;;;;;6254519;28;20049;-64
2022/02/08 21:52:10;;;;;;;21.77;11.07;;;;;;;;;;6252020;28;20037;-65
2022/02/08 21:55:13;;;;;;;23.27;11.48;;;;;;;;;;6257740;28;20037;-65
2022/02/08 21:58:16;;;;;;;23.87;11.23;;;;;;;;;;6260640;28;20060;-65
2022/02/08 22:01:18;;;;;;;22.27;12.20;;;;;;;;;;6254468;28;20096;-65
2022/02/08 22:04:20;;;;;;;22.35;11.82;;;;;;;;;;6256560;28;20624;-64
2022/02/08 22:07:23;;;;;;;25.75;12.70;;;;;;;;;;6251120;28;20041;-66
2022/02/08 22:15:45;;;;;;;22.30;12.77;;;;;;;;;;6252431;28;20505;-64
2022/02/08 22:20:58;;;;;;;26.42;13.18;;;;;;;;;;6225323;28;20168;-65
2022/02/08 22:24:06;;;;;;;23.67;12.02;;;;;;;;;;6258786;28;20159;-65
2022/02/08 22:27:27;;;;;;;24.58;11.77;;;;;;;;;;6257807;28;20445;-65
2022/02/08 22:30:43;;;;;;;26.63;12.98;;;;;;;;;;6259906;28;20045;-65
2022/02/08 22:33:49;;;;;;;26.42;13.60;;;;;;;;;;6256015;28;20064;-65
2022/02/08 22:36:56;;;;;;;31.25;13.25;;;;;;;;;;6255433;28;20128;-65
2022/02/08 22:40:04;;;;;;;22.88;9.52;;;;;;;;;;6254914;28;20059;-65
2022/02/08 22:43:10;;;;;;;21.92;11.02;;;;;;;;;;6256900;28;20042;-65
2022/02/08 22:46:13;;;;;;;14.23;8.38;;;;;;;;;;6259569;28;20049;-65
2022/02/08 22:49:15;;;;;;;14.00;6.93;;;;;;;;;;6253834;28;20049;-65
2022/02/08 22:52:19;;;;;;;16.73;7.13;;;;;;;;;;6261648;28;20130;-65
2022/02/08 22:55:24;;;;;;;13.68;6.32;;;;;;;;;;6263889;28;20127;-65
2022/02/08 22:58:25;;;;;;;13.27;7.32;;;;;;;;;;6258663;28;20119;-65
2022/02/08 23:01:27;;;;;;;14.90;7.18;;;;;;;;;;6260147;28;20077;-65
2022/02/08 23:04:31;;;;;;;11.73;5.90;;;;;;;;;;6255489;28;20135;-65
2022/02/08 23:07:32;;;;;;;13.65;7.03;;;;;;;;;;6261950;28;20052;-65
2022/02/08 23:10:45;;;;;;;13.23;6.75;;;;;;;;;;6254087;28;20069;-65
2022/02/08 23:13:49;;;;;;;14.32;6.60;;;;;;;;;;6257964;28;20482;-66
2022/02/08 23:36:53;;;;;;;19.00;7.18;;;;;;;;;;6264543;28;20041;-65
2022/02/08 23:37:01;;;;;;;21.45;10.15;;;;;;;;;;6259519;28;20565;-64
2022/02/08 23:40:04;;;;;;;31.58;9.75;;;;;;;;;;6257623;28;20060;-65
2022/02/08 23:43:07;;;;;;;19.02;9.88;;;;;;;;;;6255095;28;20045;-64
2022/02/08 23:46:09;;;;;;;23.48;11.43;;;;;;;;;;6251367;28;20132;-65
2022/02/08 23:49:21;;;;;;;27.10;12.15;;;;;;;;;;6255986;28;20052;-65
2022/02/08 23:52:31;;;;;;;21.88;11.90;;;;;;;;;;6256493;28;20521;-65
2022/02/08 23:55:37;;;;;;;20.77;12.00;;;;;;;;;;6254933;28;20065;-64
2022/02/08 23:58:43;;;;;;;24.33;13.18;;;;;;;;;;6259085;28;20056;-65
